Terminal Aerodrome Forecast
Issued by NWS

Home | Current Version | Previous Version | Text Only | Print | Product List | Glossary On
Versions: 1 2 3 4 5 6 7 8 9 10 11 12 13 14 15 16 17 18 19 20 21 22 23 24 25 26 27 28 29 30 31
000
FTUS43 KLOT 230100 AAA
TAFORD
TAF AMD
KORD 230105Z 2301/2406 25008KT 6SM HZ BKN040
     FM230330 26010KT 6SM HZ VCTS BKN040CB
     FM230530 33010KT P6SM SCT015 BKN040
     FM230700 03014G20KT P6SM SCT015
     FM231400 03016G25KT P6SM FEW250
     FM240000 03010G16KT P6SM FEW250=

USA.gov is the U.S. government's official web portal to all federal, state and local government web resources and services.